createdAt,value
2023-01-31T00:00:36.124Z,5.15
2023-01-31T00:03:05.220Z,5.68
2023-01-31T00:05:33.573Z,5.25
2023-01-31T00:08:04.575Z,4.78
2023-01-31T00:10:31.316Z,5.45
2023-01-31T00:13:01.408Z,4.78
2023-01-31T00:15:30.671Z,4.95
2023-01-31T00:17:57.721Z,4.70
2023-01-31T00:20:25.560Z,4.63
2023-01-31T00:22:55.565Z,4.70
2023-01-31T00:25:22.295Z,5.13
2023-01-31T00:27:52.526Z,4.22
2023-01-31T00:30:20.126Z,5.35
2023-01-31T00:32:48.972Z,4.80
2023-01-31T00:35:41.602Z,4.25
2023-01-31T00:38:10.337Z,4.78
2023-01-31T00:40:37.278Z,4.68
2023-01-31T00:43:07.481Z,4.18
2023-01-31T00:45:37.624Z,4.65
2023-01-31T00:48:04.472Z,4.32
2023-01-31T00:50:35.224Z,4.72
2023-01-31T00:53:03.562Z,4.07
2023-01-31T00:55:30.350Z,4.63
2023-01-31T00:57:56.965Z,4.90
2023-01-31T01:00:26.659Z,4.88
2023-01-31T01:02:53.322Z,4.63
2023-01-31T01:05:22.361Z,4.90
2023-01-31T01:07:50.522Z,5.25
2023-01-31T01:10:17.338Z,5.07
2023-01-31T01:12:44.077Z,5.30
2023-01-31T01:15:14.576Z,5.05
2023-01-31T01:17:47.868Z,5.00
2023-01-31T01:20:15.592Z,5.05
2023-01-31T01:22:45.551Z,4.88
2023-01-31T01:25:12.427Z,4.85
2023-01-31T01:27:41.351Z,5.07
2023-01-31T01:30:08.723Z,5.65
2023-01-31T01:32:35.397Z,4.93
2023-01-31T01:35:02.478Z,5.53
2023-01-31T01:37:29.869Z,5.25
2023-01-31T01:40:00.658Z,5.00
2023-01-31T01:42:34.020Z,5.35
2023-01-31T01:45:02.647Z,6.30
2023-01-31T01:47:30.350Z,7.05
2023-01-31T01:50:19.812Z,6.20
2023-01-31T01:52:54.591Z,5.18
2023-01-31T01:55:33.602Z,6.40
2023-01-31T01:58:09.525Z,6.28
2023-01-31T02:00:36.925Z,6.65
2023-01-31T02:03:07.545Z,5.57
2023-01-31T02:05:45.373Z,6.13
2023-01-31T02:08:19.228Z,5.95
2023-01-31T02:10:56.173Z,5.97
2023-01-31T02:13:27.288Z,5.88
2023-01-31T02:15:56.941Z,6.50
2023-01-31T02:18:25.433Z,6.18
2023-01-31T02:21:40.847Z,6.00
2023-01-31T02:24:29.425Z,6.25
2023-01-31T02:27:24.620Z,6.18
2023-01-31T02:30:10.320Z,6.25
2023-01-31T02:33:15.623Z,5.45
2023-01-31T02:36:12.019Z,6.70
2023-01-31T02:38:58.174Z,6.25
2023-01-31T02:41:32.308Z,6.05
2023-01-31T02:47:52.499Z,5.90
2023-01-31T02:51:07.401Z,6.72
2023-01-31T02:54:05.254Z,5.97
2023-01-31T02:56:37.031Z,6.07
2023-01-31T02:59:26.171Z,6.65
2023-01-31T03:01:59.865Z,6.57
2023-01-31T03:04:57.609Z,7.38
2023-01-31T03:07:37.388Z,7.53
2023-01-31T03:10:27.673Z,7.18
2023-01-31T03:13:20.356Z,6.40
2023-01-31T03:16:19.479Z,6.93
2023-01-31T03:19:19.845Z,6.60
2023-01-31T03:22:00.692Z,6.88
2023-01-31T03:24:40.906Z,6.95
2023-01-31T03:27:08.047Z,6.57
2023-01-31T03:30:03.884Z,7.13
2023-01-31T03:32:40.824Z,7.32
2023-01-31T03:35:12.112Z,6.40
2023-01-31T03:38:00.711Z,7.55
2023-01-31T03:40:43.737Z,7.40
2023-01-31T03:43:25.342Z,7.32
2023-01-31T03:48:31.212Z,7.45
2023-01-31T03:51:04.314Z,8.70
2023-01-31T03:54:04.520Z,7.50
2023-01-31T03:57:33.437Z,8.15
2023-01-31T04:00:03.885Z,8.10
2023-01-31T04:02:39.927Z,7.30
2023-01-31T04:05:16.043Z,9.75
2023-01-31T04:07:47.818Z,9.68
2023-01-31T04:10:25.439Z,8.15
2023-01-31T04:13:00.822Z,8.20
2023-01-31T04:15:30.107Z,9.18
2023-01-31T04:17:59.010Z,7.22
2023-01-31T04:20:25.659Z,8.48
2023-01-31T04:26:01.854Z,9.10
2023-01-31T04:28:30.560Z,7.93
2023-01-31T04:31:04.056Z,7.93
2023-01-31T04:36:00.960Z,8.27
2023-01-31T04:38:29.768Z,7.22
2023-01-31T04:40:56.461Z,8.05
2023-01-31T04:43:29.182Z,7.97
2023-01-31T04:48:29.113Z,6.30
2023-01-31T04:50:57.834Z,7.78
2023-01-31T04:53:25.004Z,7.78
2023-01-31T04:55:58.847Z,7.97
2023-01-31T04:58:25.965Z,8.95
2023-01-31T05:00:55.693Z,8.65
2023-01-31T05:03:32.938Z,8.88
2023-01-31T05:06:01.159Z,6.88
2023-01-31T05:08:34.366Z,7.68
2023-01-31T05:11:04.227Z,7.00
2023-01-31T05:13:37.710Z,8.18
2023-01-31T05:16:10.282Z,8.60
2023-01-31T05:18:38.944Z,7.57
2023-01-31T05:21:07.415Z,8.57
2023-01-31T05:23:40.341Z,8.13
2023-01-31T05:26:08.898Z,7.85
2023-01-31T05:28:37.877Z,8.25
2023-01-31T05:31:12.651Z,7.53
2023-01-31T05:33:45.147Z,8.20
2023-01-31T05:36:12.253Z,7.75
2023-01-31T05:39:09.140Z,8.63
2023-01-31T05:41:36.498Z,8.05
2023-01-31T05:44:03.531Z,8.20
2023-01-31T05:46:30.421Z,8.15
2023-01-31T05:49:02.208Z,8.57
2023-01-31T05:51:33.383Z,7.10
2023-01-31T05:57:14.595Z,8.13
2023-01-31T05:59:41.950Z,7.65
2023-01-31T06:02:10.696Z,7.53
2023-01-31T06:04:39.943Z,9.23
2023-01-31T06:07:07.148Z,8.45
2023-01-31T06:09:38.194Z,9.23
2023-01-31T06:12:05.200Z,8.90
2023-01-31T06:14:34.539Z,9.05
2023-01-31T06:17:03.347Z,8.70
2023-01-31T06:19:35.204Z,8.05
2023-01-31T06:22:09.438Z,9.25
2023-01-31T06:24:36.395Z,9.50
2023-01-31T06:27:06.465Z,7.60
2023-01-31T06:29:35.449Z,10.32
2023-01-31T06:32:03.957Z,9.07
2023-01-31T06:34:34.224Z,9.00
2023-01-31T06:37:00.879Z,9.93
2023-01-31T06:39:27.987Z,8.68
2023-01-31T06:41:55.565Z,9.98
2023-01-31T06:44:22.243Z,9.57
2023-01-31T06:46:52.137Z,9.98
2023-01-31T06:49:20.992Z,9.07
2023-01-31T06:51:47.616Z,9.95
2023-01-31T06:54:15.503Z,9.73
2023-01-31T06:56:42.762Z,10.18
2023-01-31T06:59:11.443Z,10.00
2023-01-31T07:01:44.286Z,10.13
2023-01-31T07:04:12.527Z,10.50
2023-01-31T07:06:39.266Z,9.73
2023-01-31T07:09:06.814Z,10.02
2023-01-31T07:11:37.700Z,10.63
2023-01-31T07:14:04.473Z,10.85
2023-01-31T07:16:34.365Z,10.48
2023-01-31T07:19:05.629Z,10.35
2023-01-31T07:21:35.220Z,10.55
2023-01-31T07:24:07.280Z,8.73
2023-01-31T07:26:34.388Z,8.13
2023-01-31T07:29:14.333Z,10.20
2023-01-31T07:31:43.676Z,8.40
2023-01-31T07:34:10.382Z,8.85
2023-01-31T07:36:37.359Z,8.20
2023-01-31T07:39:04.100Z,9.10
2023-01-31T07:41:33.360Z,7.03
2023-01-31T07:49:57.005Z,7.15
2023-01-31T07:52:24.971Z,6.07
2023-01-31T07:54:51.670Z,7.22
2023-01-31T07:57:20.807Z,7.25
2023-01-31T07:59:48.447Z,5.60
2023-01-31T08:02:38.572Z,6.68
2023-01-31T08:05:09.693Z,6.75
2023-01-31T08:07:36.746Z,6.05
2023-01-31T08:10:05.068Z,6.95
2023-01-31T08:12:33.903Z,5.93
2023-01-31T08:15:04.000Z,6.10
2023-01-31T08:17:32.912Z,5.45
2023-01-31T08:20:00.715Z,6.13
2023-01-31T08:22:27.362Z,6.60
2023-01-31T08:24:54.004Z,6.10
2023-01-31T08:27:26.993Z,5.97
2023-01-31T08:30:05.885Z,5.60
2023-01-31T08:32:32.908Z,5.85
2023-01-31T08:34:59.777Z,5.22
2023-01-31T08:37:33.575Z,6.13
2023-01-31T08:40:00.207Z,6.25
2023-01-31T08:42:27.119Z,5.20
2023-01-31T08:44:54.312Z,4.93
2023-01-31T08:47:23.854Z,5.95
2023-01-31T08:49:57.038Z,4.82
2023-01-31T08:52:23.932Z,5.63
2023-01-31T08:54:52.991Z,5.07
2023-01-31T08:57:20.222Z,4.97
2023-01-31T08:59:55.053Z,5.25
2023-01-31T09:02:21.743Z,5.28
2023-01-31T09:04:49.839Z,5.82
2023-01-31T09:07:20.881Z,5.28
2023-01-31T09:09:48.782Z,5.35
2023-01-31T09:12:15.472Z,5.05
2023-01-31T09:14:45.047Z,4.80
2023-01-31T09:17:18.380Z,5.18
2023-01-31T09:19:48.753Z,5.18
2023-01-31T09:22:16.948Z,5.28
2023-01-31T09:27:38.009Z,4.82
2023-01-31T09:30:09.721Z,5.45
2023-01-31T09:32:40.675Z,4.57
2023-01-31T09:35:07.928Z,5.22
2023-01-31T09:37:36.989Z,4.57
2023-01-31T09:40:05.548Z,4.90
2023-01-31T09:42:44.334Z,5.07
2023-01-31T09:45:31.147Z,4.32
2023-01-31T09:51:04.902Z,5.43
2023-01-31T09:53:42.214Z,5.03
2023-01-31T09:56:08.885Z,5.45
2023-01-31T09:58:58.816Z,5.18
2023-01-31T10:01:31.865Z,5.55
2023-01-31T10:04:19.528Z,6.03
2023-01-31T10:07:19.428Z,6.30
2023-01-31T10:10:07.273Z,5.82
2023-01-31T10:12:44.856Z,6.63
2023-01-31T10:15:41.385Z,5.90
2023-01-31T10:18:16.631Z,5.70
2023-01-31T10:20:59.303Z,6.28
2023-01-31T10:23:39.706Z,6.22
2023-01-31T10:26:21.499Z,5.07
2023-01-31T10:29:02.547Z,5.18
2023-01-31T10:31:54.375Z,6.47
2023-01-31T10:34:41.676Z,4.70
2023-01-31T10:37:35.014Z,4.47
2023-01-31T10:40:46.603Z,6.10
2023-01-31T10:43:36.341Z,5.15
2023-01-31T10:46:12.118Z,4.88
2023-01-31T10:48:50.901Z,4.85
2023-01-31T10:51:50.920Z,5.25
2023-01-31T10:54:25.969Z,5.13
2023-01-31T10:56:59.498Z,5.13
2023-01-31T10:59:32.605Z,4.85
2023-01-31T11:02:02.418Z,4.78
2023-01-31T11:04:57.582Z,4.72
2023-01-31T11:07:37.663Z,4.75
2023-01-31T11:10:51.718Z,4.70
2023-01-31T11:13:20.712Z,4.45
2023-01-31T11:15:52.552Z,4.50
2023-01-31T11:18:55.809Z,5.18
2023-01-31T11:21:26.510Z,4.10
2023-01-31T11:24:15.728Z,4.07
2023-01-31T11:26:54.728Z,3.90
2023-01-31T11:29:45.079Z,4.25
2023-01-31T11:32:24.056Z,3.90
2023-01-31T11:35:14.518Z,3.42
2023-01-31T11:38:03.424Z,4.10
2023-01-31T11:40:35.327Z,4.05
2023-01-31T11:43:03.257Z,4.40
2023-01-31T11:45:37.434Z,3.80
2023-01-31T11:48:21.769Z,4.00
2023-01-31T11:51:06.065Z,4.57
2023-01-31T11:56:36.927Z,3.72
2023-01-31T11:59:10.072Z,3.95
2023-01-31T12:01:47.152Z,3.20
2023-01-31T12:04:42.748Z,2.65
2023-01-31T12:07:39.908Z,4.05
2023-01-31T12:10:32.962Z,4.15
2023-01-31T12:13:17.589Z,3.10
2023-01-31T12:16:00.790Z,2.30
2023-01-31T12:18:42.869Z,3.22
2023-01-31T12:21:28.482Z,3.33
2023-01-31T12:24:21.526Z,2.65
2023-01-31T12:26:58.848Z,2.83
2023-01-31T12:30:02.968Z,2.90
2023-01-31T12:32:50.932Z,3.55
2023-01-31T12:35:32.840Z,2.75
2023-01-31T12:38:24.382Z,2.55
2023-01-31T12:41:18.734Z,4.63
2023-01-31T12:43:45.395Z,4.32
2023-01-31T12:46:22.715Z,4.55
2023-01-31T12:49:23.765Z,3.47
2023-01-31T12:52:02.648Z,3.33
2023-01-31T12:55:23.289Z,2.20
2023-01-31T12:58:21.881Z,3.20
2023-01-31T13:01:13.065Z,3.03
2023-01-31T13:04:12.943Z,2.45
2023-01-31T13:06:45.007Z,1.90
2023-01-31T13:09:31.652Z,2.30
2023-01-31T13:12:09.161Z,3.00
2023-01-31T13:15:03.604Z,2.45
2023-01-31T13:17:32.894Z,2.38
2023-01-31T13:20:21.847Z,2.47
2023-01-31T13:23:03.416Z,2.80
2023-01-31T13:25:36.708Z,4.07
2023-01-31T13:28:20.599Z,2.20
2023-01-31T13:31:00.501Z,2.80
2023-01-31T13:33:51.547Z,8.10
2023-01-31T13:36:40.820Z,2.90
2023-01-31T13:39:21.221Z,3.42
2023-01-31T13:41:48.171Z,2.38
2023-01-31T13:44:16.747Z,2.90
2023-01-31T13:47:06.679Z,2.55
2023-01-31T13:49:33.454Z,2.58
2023-01-31T13:52:08.824Z,2.88
2023-01-31T13:54:40.421Z,2.85
2023-01-31T14:00:07.297Z,2.78
2023-01-31T14:02:35.647Z,1.88
2023-01-31T14:05:26.599Z,2.50
2023-01-31T14:08:30.972Z,2.97
2023-01-31T14:11:00.780Z,2.70
2023-01-31T14:13:32.267Z,2.53
2023-01-31T14:16:03.022Z,3.03
2023-01-31T14:18:45.210Z,5.90
2023-01-31T14:21:29.963Z,2.83
2023-01-31T14:24:01.477Z,2.33
2023-01-31T14:26:44.259Z,3.20
2023-01-31T14:29:19.777Z,2.35
2023-01-31T14:31:48.489Z,2.78
2023-01-31T14:34:18.681Z,3.33
2023-01-31T14:36:55.095Z,2.63
2023-01-31T14:39:27.490Z,3.15
2023-01-31T14:41:59.981Z,3.05
2023-01-31T14:44:58.622Z,3.38
2023-01-31T14:48:10.165Z,4.32
2023-01-31T14:50:58.639Z,3.28
2023-01-31T14:53:43.855Z,2.95
2023-01-31T14:56:33.972Z,3.45
2023-01-31T14:59:03.588Z,2.65
2023-01-31T15:01:37.536Z,3.42
2023-01-31T15:04:05.292Z,3.17
2023-01-31T15:06:40.130Z,2.75
2023-01-31T15:09:24.993Z,2.92
2023-01-31T15:11:57.887Z,3.10
2023-01-31T15:14:51.117Z,3.42
2023-01-31T15:17:35.511Z,2.90
2023-01-31T15:20:26.201Z,3.47
2023-01-31T15:22:58.047Z,3.63
2023-01-31T15:25:34.169Z,4.57
2023-01-31T15:28:23.872Z,4.38
2023-01-31T15:30:53.964Z,3.58
2023-01-31T15:33:29.445Z,3.33
2023-01-31T15:36:04.742Z,3.55
2023-01-31T15:38:53.844Z,3.33
2023-01-31T15:41:35.043Z,3.55
2023-01-31T15:44:26.019Z,3.75
2023-01-31T15:46:54.728Z,4.53
2023-01-31T15:49:43.079Z,3.28
2023-01-31T15:52:26.906Z,3.70
2023-01-31T15:54:59.879Z,3.63
2023-01-31T15:57:36.123Z,3.28
2023-01-31T16:03:00.191Z,3.47
2023-01-31T16:05:33.307Z,3.30
2023-01-31T16:08:04.840Z,3.28
2023-01-31T16:10:32.078Z,3.65
2023-01-31T16:13:00.698Z,3.60
2023-01-31T16:15:37.857Z,3.25
2023-01-31T16:18:05.202Z,4.10
2023-01-31T16:20:48.133Z,3.03
2023-01-31T16:23:40.822Z,3.42
2023-01-31T16:26:23.370Z,3.60
2023-01-31T16:28:57.279Z,3.13
2023-01-31T16:34:33.039Z,5.07
2023-01-31T16:40:28.117Z,3.42
2023-01-31T16:43:19.460Z,3.45
2023-01-31T16:46:18.380Z,4.03
2023-01-31T16:49:03.206Z,4.32
2023-01-31T16:51:30.615Z,4.57
2023-01-31T16:54:23.671Z,4.40
2023-01-31T16:57:20.227Z,4.03
2023-01-31T16:59:51.920Z,4.30
2023-01-31T17:02:25.422Z,3.30
2023-01-31T17:04:57.705Z,3.97
2023-01-31T17:07:34.430Z,3.50
2023-01-31T17:10:06.217Z,4.30
2023-01-31T17:12:43.085Z,2.90
2023-01-31T17:15:19.896Z,3.95
2023-01-31T17:17:47.310Z,4.35
2023-01-31T17:20:17.958Z,4.10
2023-01-31T17:22:50.492Z,3.78
2023-01-31T17:25:34.018Z,3.40
2023-01-31T17:28:04.106Z,3.60
2023-01-31T17:30:37.087Z,4.05
2023-01-31T17:33:03.958Z,3.78
2023-01-31T17:35:42.524Z,3.42
2023-01-31T17:38:10.951Z,3.20
2023-01-31T17:40:42.127Z,3.53
2023-01-31T17:43:19.711Z,4.45
2023-01-31T17:45:48.696Z,3.47
2023-01-31T17:48:26.264Z,3.85
2023-01-31T17:50:56.345Z,3.75
2023-01-31T17:53:34.547Z,3.90
2023-01-31T17:56:05.632Z,3.67
2023-01-31T17:58:35.676Z,3.55
2023-01-31T18:01:08.921Z,3.75
2023-01-31T18:03:37.030Z,3.88
2023-01-31T18:06:08.202Z,3.78
2023-01-31T18:08:41.745Z,3.17
2023-01-31T18:11:14.269Z,3.42
2023-01-31T18:13:43.986Z,3.95
2023-01-31T18:16:14.057Z,3.63
2023-01-31T18:18:43.004Z,4.15
2023-01-31T18:21:14.804Z,3.70
2023-01-31T18:23:41.863Z,4.70
2023-01-31T18:26:10.208Z,3.50
2023-01-31T18:28:37.665Z,4.13
2023-01-31T18:31:12.016Z,3.70
2023-01-31T18:33:43.511Z,3.70
2023-01-31T18:36:21.391Z,3.63
2023-01-31T18:38:49.227Z,4.00
2023-01-31T18:41:20.728Z,3.40
2023-01-31T18:43:50.693Z,3.20
2023-01-31T18:46:17.652Z,3.67
2023-01-31T18:48:44.424Z,3.33
2023-01-31T18:51:12.990Z,3.42
2023-01-31T18:53:48.217Z,3.97
2023-01-31T18:58:50.514Z,3.65
2023-01-31T19:01:23.144Z,5.10
2023-01-31T19:03:54.729Z,3.35
2023-01-31T19:06:48.990Z,3.33
2023-01-31T19:09:15.815Z,3.58
2023-01-31T19:11:45.172Z,3.00
2023-01-31T19:14:13.445Z,2.85
2023-01-31T19:16:41.930Z,2.92
2023-01-31T19:21:52.945Z,4.30
2023-01-31T19:27:25.531Z,4.15
2023-01-31T19:32:48.202Z,3.63
2023-01-31T20:05:36.349Z,2.88
2023-01-31T20:08:05.309Z,3.42
2023-01-31T20:10:34.252Z,3.33
2023-01-31T20:13:01.885Z,3.13
2023-01-31T20:15:29.515Z,2.92
2023-01-31T20:17:58.250Z,2.90
2023-01-31T20:20:29.335Z,3.65
2023-01-31T20:23:00.984Z,3.38
2023-01-31T20:25:27.817Z,3.17
2023-01-31T20:28:01.215Z,3.20
2023-01-31T20:30:28.800Z,3.13
2023-01-31T20:32:58.999Z,3.60
2023-01-31T20:35:25.627Z,3.67
2023-01-31T20:37:57.565Z,3.47
2023-01-31T20:40:30.246Z,4.38
2023-01-31T20:45:27.817Z,3.75
2023-01-31T20:47:57.208Z,2.95
2023-01-31T20:50:28.396Z,3.63
2023-01-31T20:52:55.943Z,3.78
2023-01-31T20:55:23.608Z,3.45
2023-01-31T20:57:58.944Z,3.75
2023-01-31T21:00:28.169Z,2.65
2023-01-31T21:02:54.910Z,3.80
2023-01-31T21:05:24.250Z,3.78
2023-01-31T21:07:50.919Z,3.42
2023-01-31T21:10:17.868Z,3.50
2023-01-31T21:12:51.570Z,2.60
2023-01-31T21:15:18.200Z,2.67
2023-01-31T21:17:51.402Z,2.95
2023-01-31T21:20:20.890Z,3.35
2023-01-31T21:22:47.736Z,3.85
2023-01-31T21:25:19.427Z,3.95
2023-01-31T21:27:50.020Z,8.88
2023-01-31T21:30:17.212Z,3.33
2023-01-31T21:32:48.209Z,4.75
2023-01-31T21:35:14.986Z,3.55
2023-01-31T21:37:47.468Z,3.00
2023-01-31T21:40:16.301Z,2.50
2023-01-31T21:42:46.369Z,2.95
2023-01-31T21:45:15.270Z,3.10
2023-01-31T21:48:00.447Z,2.72
2023-01-31T21:50:30.940Z,2.67
2023-01-31T21:52:57.630Z,2.70
2023-01-31T21:55:24.384Z,2.30
2023-01-31T21:57:51.241Z,2.80
2023-01-31T22:00:21.163Z,3.83
2023-01-31T22:02:51.448Z,3.63
2023-01-31T22:05:18.423Z,3.38
2023-01-31T22:07:45.230Z,3.10
2023-01-31T22:10:14.073Z,3.28
2023-01-31T22:12:47.415Z,3.05
2023-01-31T22:15:15.850Z,3.03
2023-01-31T22:17:42.771Z,3.42
2023-01-31T22:20:11.097Z,3.40
2023-01-31T22:22:37.831Z,3.58
2023-01-31T22:25:10.489Z,3.30
2023-01-31T22:27:37.551Z,3.20
2023-01-31T22:30:15.728Z,4.20
2023-01-31T22:32:47.215Z,3.17
2023-01-31T22:35:18.135Z,3.47
2023-01-31T22:38:10.553Z,3.70
2023-01-31T22:40:47.468Z,3.50
2023-01-31T22:46:03.482Z,3.92
2023-01-31T22:49:00.094Z,4.13
2023-01-31T22:51:34.042Z,3.53
2023-01-31T22:54:02.040Z,3.28
2023-01-31T22:56:31.881Z,3.70
2023-01-31T22:59:31.430Z,4.10
2023-01-31T23:01:59.339Z,3.97
2023-01-31T23:04:27.041Z,4.10
2023-01-31T23:06:56.195Z,4.75
2023-01-31T23:09:29.796Z,5.05
2023-01-31T23:12:21.516Z,3.88
2023-01-31T23:14:51.430Z,4.63
